Wilmette, IL

8:25 AM CDT on August 24, 2016 (GMT -0500)
Wilmette, Illinois | | Change Station

Elev 646 ft 42.07 °N, 87.72 °W | Updated 2 minutes ago

Overcast
Overcast
73.9 °F
Feels Like 73 °F
N
0.6
Wind Variable Wind from West

Today
High -- | Low -- °F
--% Chance of Precip.
Yesterday
High -- | Low -- °F
Precip. -- in
Pressure 30.01 in
Visibility 9.0 miles
Clouds Overcast 1200 ft
Heat Index 73 °F
Dew Point 68 °F
Humidity 84%
Rainfall 0.00 in
Snow Depth Not available.
6:08 AM 7:36 PM
Waning Gibbous, 57% visible
METAR KPWK 241252Z 20008KT 9SM -RA OVC012 22/20 A3002 RMK AO2 LTG DSNT W RAB33 SLP161 P0000 T02220200
Pressure 30.01 in
Visibility 9.0 miles
Clouds Overcast 1200 ft
Heat Index 73 °F
Dew Point 68 °F
Humidity 84%
Rainfall 0.00 in
Snow Depth Not available.
6:08 AM 7:36 PM
Waning Gibbous, 57% visible
METAR KPWK 241252Z 20008KT 9SM -RA OVC012 22/20 A3002 RMK AO2 LTG DSNT W RAB33 SLP161 P0000 T02220200

10-Day Weather Forecast

Almanac

Astronomy

Aug. 24, 2016 Rise Set
Actual Time
Civil Twilight
Nautical Twilight
Astronomical Twilight
Moon
Length of Visible Light
Length of Day
Tomorrow will be .
, % of the Moon is Illuminated

Today's Extremes

State Highs State Lows

Community

WunderPhotos

Upload Photos

1,934,594 photos uploaded!

WunderBlog® & News

Nearby

Air Quality

  Air Quality AQ Index Pollutant
Not available.

Snow Depth

Station Depth Elevation

Earthquake Activity

City Distance Mag. Time & Date
Minimum magnitude displayed is 2.5.

Coastal Water Temperatures

Place Temperature

Stations

Nearby Weather Stations

Station Location Temp. Windchill Dew Point Humidity Wind Precip. Elev Updated Type
                   

Watches & Warnings

There are currently no watches in effect.